createdAt,value
2019-02-18T00:00:58.411Z,4.90
2019-02-18T00:07:02.978Z,5.00
2019-02-18T00:13:07.579Z,4.90
2019-02-18T00:19:12.133Z,4.70
2019-02-18T00:25:16.694Z,4.60
2019-02-18T00:31:21.252Z,4.50
2019-02-18T00:37:25.823Z,4.40
2019-02-18T00:43:30.359Z,4.30
2019-02-18T00:49:34.893Z,4.20
2019-02-18T00:55:39.466Z,4.10
2019-02-18T01:01:44.089Z,4.10
2019-02-18T01:07:48.703Z,4.20
2019-02-18T01:13:53.247Z,4.20
2019-02-18T01:19:57.799Z,4.10
2019-02-18T01:26:02.350Z,4.40
2019-02-18T01:32:06.978Z,4.50
2019-02-18T01:38:11.589Z,4.10
2019-02-18T01:44:16.144Z,4.00
2019-02-18T01:50:20.701Z,3.90
2019-02-18T01:56:25.238Z,3.90
2019-02-18T02:02:29.785Z,3.80
2019-02-18T02:08:34.414Z,3.80
2019-02-18T02:14:38.988Z,3.70
2019-02-18T02:20:43.544Z,3.80
2019-02-18T02:26:50.751Z,3.60
2019-02-18T02:32:55.629Z,3.50
2019-02-18T02:39:00.262Z,4.00
2019-02-18T02:45:06.302Z,3.70
2019-02-18T02:51:10.863Z,3.60
2019-02-18T02:57:15.411Z,3.50
2019-02-18T03:03:19.962Z,3.50
2019-02-18T03:09:24.502Z,3.40
2019-02-18T03:15:29.052Z,3.30
2019-02-18T03:21:33.770Z,3.20
2019-02-18T03:27:38.316Z,3.10
2019-02-18T03:33:59.519Z,3.20
2019-02-18T03:40:04.410Z,3.10
2019-02-18T03:46:08.955Z,2.90
2019-02-18T03:52:13.502Z,2.80
2019-02-18T03:58:18.115Z,2.60
2019-02-18T04:04:23.777Z,2.50
2019-02-18T04:10:28.342Z,2.40
2019-02-18T04:16:32.896Z,2.20
2019-02-18T04:22:37.441Z,1.90
2019-02-18T04:28:41.995Z,1.90
2019-02-18T04:34:46.553Z,1.80
2019-02-18T04:40:51.102Z,1.80
2019-02-18T04:46:55.647Z,1.80
2019-02-18T04:53:00.186Z,1.60
2019-02-18T04:59:04.748Z,1.40
2019-02-18T05:05:10.796Z,1.50
2019-02-18T05:11:15.349Z,1.40
2019-02-18T05:17:19.904Z,1.30
2019-02-18T05:23:24.451Z,1.30
2019-02-18T05:29:29.030Z,1.30
2019-02-18T05:35:33.584Z,1.20
2019-02-18T05:41:38.135Z,1.20
2019-02-18T05:47:42.707Z,1.20
2019-02-18T05:53:47.258Z,1.10
2019-02-18T05:59:51.825Z,1.10
2019-02-18T06:05:56.455Z,1.10
2019-02-18T06:12:01.002Z,1.10
2019-02-18T06:18:05.608Z,1.10
2019-02-18T06:24:11.214Z,1.10
2019-02-18T06:30:15.735Z,1.00
2019-02-18T06:36:20.282Z,1.10
2019-02-18T06:42:25.827Z,1.00
2019-02-18T06:48:34.101Z,1.10
2019-02-18T06:54:38.986Z,1.10
2019-02-18T07:00:58.451Z,1.00
2019-02-18T07:07:04.661Z,0.90
2019-02-18T07:13:09.192Z,1.00
2019-02-18T07:19:13.843Z,1.00
2019-02-18T07:25:18.358Z,1.00
2019-02-18T07:31:22.906Z,1.00
2019-02-18T07:37:40.396Z,1.20
2019-02-18T07:43:44.936Z,1.20
2019-02-18T07:49:49.509Z,1.40
2019-02-18T07:55:54.059Z,1.60
2019-02-18T08:01:58.631Z,1.70
2019-02-18T08:08:03.180Z,1.90
2019-02-18T08:14:07.736Z,2.00
2019-02-18T08:20:12.752Z,2.10
2019-02-18T08:26:17.367Z,2.20
2019-02-18T08:32:21.919Z,2.30
2019-02-18T08:38:26.487Z,2.50
2019-02-18T08:44:31.043Z,2.80
2019-02-18T08:50:35.586Z,3.10
2019-02-18T08:56:40.136Z,3.20
2019-02-18T09:02:44.754Z,3.50
2019-02-18T09:08:49.375Z,3.70
2019-02-18T09:14:53.931Z,3.90
2019-02-18T09:20:58.499Z,4.10
2019-02-18T09:27:04.796Z,4.50
2019-02-18T09:33:09.637Z,4.70
2019-02-18T09:39:18.013Z,4.90
2019-02-18T09:45:22.560Z,5.30
2019-02-18T09:51:27.108Z,5.60
2019-02-18T09:57:32.555Z,5.90
2019-02-18T10:03:37.116Z,6.40
2019-02-18T10:09:41.666Z,6.70
2019-02-18T10:15:47.207Z,6.90
2019-02-18T10:21:51.768Z,7.00
2019-02-18T10:27:56.298Z,7.30
2019-02-18T10:34:00.846Z,7.50
2019-02-18T10:40:08.097Z,7.70
2019-02-18T10:46:12.653Z,7.90
2019-02-18T10:52:22.483Z,8.10
2019-02-18T10:58:26.319Z,8.20
2019-02-18T11:04:30.882Z,8.40
2019-02-18T11:10:35.442Z,8.60
2019-02-18T11:16:39.992Z,8.80
2019-02-18T11:22:44.550Z,9.00
2019-02-18T11:28:49.090Z,9.30
2019-02-18T11:34:53.641Z,9.60
2019-02-18T11:40:58.202Z,9.80
2019-02-18T11:47:02.861Z,10.10
2019-02-18T11:53:07.415Z,10.30
2019-02-18T11:59:12.013Z,10.40
2019-02-18T12:05:16.739Z,10.60
2019-02-18T12:11:21.376Z,10.80
2019-02-18T12:17:28.165Z,11.00
2019-02-18T12:23:32.709Z,11.40
2019-02-18T12:29:37.892Z,11.60
2019-02-18T12:35:42.457Z,11.80
2019-02-18T12:41:48.988Z,12.10
2019-02-18T12:47:53.377Z,12.30
2019-02-18T12:54:04.796Z,12.50
2019-02-18T13:00:09.202Z,13.00
2019-02-18T13:06:13.945Z,13.30
2019-02-18T13:12:18.711Z,13.50
2019-02-18T13:18:23.334Z,13.50
2019-02-18T13:24:28.305Z,13.50
2019-02-18T13:30:32.925Z,13.70
2019-02-18T13:36:37.974Z,13.90
2019-02-18T13:42:42.614Z,14.00
2019-02-18T13:48:47.184Z,13.80
2019-02-18T13:54:51.826Z,13.90
2019-02-18T14:01:16.229Z,14.10
2019-02-18T14:07:40.251Z,14.40
2019-02-18T14:14:04.362Z,14.70
2019-02-18T14:20:42.712Z,14.80
2019-02-18T14:27:13.418Z,14.70
2019-02-18T14:33:37.495Z,14.40
2019-02-18T14:39:43.607Z,14.30
2019-02-18T14:45:48.511Z,14.30
2019-02-18T14:51:53.247Z,14.00
2019-02-18T14:57:57.961Z,13.90
2019-02-18T15:04:02.627Z,13.80
2019-02-18T15:10:11.445Z,13.70
2019-02-18T15:16:16.158Z,13.50
2019-02-18T15:22:20.790Z,13.20
2019-02-18T15:28:25.431Z,13.00
2019-02-18T15:34:30.856Z,12.90
2019-02-18T15:40:36.124Z,12.70
2019-02-18T15:46:41.011Z,12.80
2019-02-18T15:52:45.679Z,12.80
2019-02-18T15:58:50.383Z,12.40
2019-02-18T16:04:55.134Z,12.00
2019-02-18T16:11:00.196Z,11.40
2019-02-18T16:17:05.108Z,11.10
2019-02-18T16:23:09.668Z,10.70
2019-02-18T16:29:14.378Z,10.30
2019-02-18T16:35:23.087Z,10.10
2019-02-18T16:41:28.058Z,9.80
2019-02-18T16:47:33.066Z,9.50
2019-02-18T16:53:37.709Z,9.30
2019-02-18T16:59:42.303Z,9.20
2019-02-18T17:05:46.862Z,9.20
2019-02-18T17:11:52.296Z,9.10
2019-02-18T17:17:57.205Z,9.10
2019-02-18T17:24:02.344Z,9.10
2019-02-18T17:30:11.581Z,9.00
2019-02-18T17:36:16.239Z,9.00
2019-02-18T17:42:21.040Z,8.90
2019-02-18T17:48:25.737Z,8.70
2019-02-18T17:54:30.595Z,8.70
2019-02-18T18:00:36.931Z,8.60
2019-02-18T18:06:41.499Z,8.40
2019-02-18T18:12:47.892Z,8.30
2019-02-18T18:18:52.448Z,8.30
2019-02-18T18:24:57.068Z,8.20
2019-02-18T18:31:02.730Z,8.10
2019-02-18T18:37:07.426Z,8.00
2019-02-18T18:43:15.687Z,7.80
2019-02-18T18:49:20.561Z,7.70
2019-02-18T18:55:25.229Z,7.50
2019-02-18T19:01:30.163Z,7.30
2019-02-18T19:07:34.846Z,7.20
2019-02-18T19:13:42.146Z,7.20
2019-02-18T19:19:46.097Z,7.10
2019-02-18T19:25:50.743Z,6.90
2019-02-18T19:31:55.370Z,7.10
2019-02-18T19:38:00.451Z,7.20
2019-02-18T19:44:05.175Z,7.10
2019-02-18T19:50:10.188Z,7.00
2019-02-18T19:56:14.822Z,6.90
2019-02-18T20:02:19.553Z,6.80
2019-02-18T20:08:24.496Z,6.70
2019-02-18T20:14:32.245Z,6.50
2019-02-18T20:20:36.883Z,6.70
2019-02-18T20:26:41.444Z,6.80
2019-02-18T20:32:46.001Z,6.80
2019-02-18T20:38:50.562Z,6.90
2019-02-18T20:44:55.189Z,6.80
2019-02-18T20:51:00.084Z,6.60
2019-02-18T20:57:06.413Z,6.70
2019-02-18T21:03:11.050Z,6.70
2019-02-18T21:09:15.934Z,6.80
2019-02-18T21:15:20.882Z,6.90
2019-02-18T21:21:25.436Z,7.00
2019-02-18T21:27:31.443Z,7.10
2019-02-18T21:33:36.156Z,6.90
2019-02-18T21:39:43.443Z,6.80
2019-02-18T21:45:48.062Z,6.80
2019-02-18T21:51:53.691Z,6.70
2019-02-18T21:57:58.360Z,6.50
2019-02-18T22:04:03.145Z,6.30
2019-02-18T22:10:09.933Z,6.10
2019-02-18T22:16:14.559Z,5.90
2019-02-18T22:22:19.135Z,5.70
2019-02-18T22:28:23.728Z,5.60
2019-02-18T22:34:28.367Z,5.70
2019-02-18T22:40:33.184Z,5.90
2019-02-18T22:46:40.988Z,6.10
2019-02-18T22:52:45.874Z,5.90
2019-02-18T22:58:50.569Z,5.90
2019-02-18T23:04:55.227Z,6.00
2019-02-18T23:11:00.438Z,6.00
2019-02-18T23:17:05.416Z,5.80
2019-02-18T23:23:10.127Z,5.80
2019-02-18T23:29:14.740Z,5.80
2019-02-18T23:35:19.637Z,5.80
2019-02-18T23:41:24.410Z,5.70
2019-02-18T23:47:29.449Z,5.40
2019-02-18T23:53:34.765Z,5.50
2019-02-18T23:59:39.396Z,5.40
